sensor_id;sensor_type;location;lat;lon;timestamp;temperature;humidity
23618;DHT22;18207;32.078;34.818;2023-04-05T00:00:56;26.00;35.30
23618;DHT22;18207;32.078;34.818;2023-04-05T00:03:26;26.00;35.30
23618;DHT22;18207;32.078;34.818;2023-04-05T00:05:56;26.00;35.40
23618;DHT22;18207;32.078;34.818;2023-04-05T00:08:28;26.00;35.40
23618;DHT22;18207;32.078;34.818;2023-04-05T00:10:58;25.90;35.40
23618;DHT22;18207;32.078;34.818;2023-04-05T00:13:28;25.90;36.00
23618;DHT22;18207;32.078;34.818;2023-04-05T00:15:59;25.90;35.40
23618;DHT22;18207;32.078;34.818;2023-04-05T00:18:29;25.80;35.40
23618;DHT22;18207;32.078;34.818;2023-04-05T00:21:00;25.80;35.50
23618;DHT22;18207;32.078;34.818;2023-04-05T00:23:32;25.80;35.60
23618;DHT22;18207;32.078;34.818;2023-04-05T00:26:05;25.80;35.70
23618;DHT22;18207;32.078;34.818;2023-04-05T00:28:35;25.80;35.70
23618;DHT22;18207;32.078;34.818;2023-04-05T00:31:06;25.70;35.70
23618;DHT22;18207;32.078;34.818;2023-04-05T00:33:36;25.70;35.80
23618;DHT22;18207;32.078;34.818;2023-04-05T00:36:08;25.70;35.80
23618;DHT22;18207;32.078;34.818;2023-04-05T00:38:42;25.70;35.80
23618;DHT22;18207;32.078;34.818;2023-04-05T00:41:13;25.70;35.90
23618;DHT22;18207;32.078;34.818;2023-04-05T00:43:44;25.70;35.90
23618;DHT22;18207;32.078;34.818;2023-04-05T00:46:15;25.60;35.90
23618;DHT22;18207;32.078;34.818;2023-04-05T00:48:46;25.60;36.00
23618;DHT22;18207;32.078;34.818;2023-04-05T00:51:16;25.60;36.00
23618;DHT22;18207;32.078;34.818;2023-04-05T00:53:50;25.60;36.10
23618;DHT22;18207;32.078;34.818;2023-04-05T00:56:21;25.50;36.00
23618;DHT22;18207;32.078;34.818;2023-04-05T00:58:53;25.50;36.10
23618;DHT22;18207;32.078;34.818;2023-04-05T01:01:26;25.50;36.10
23618;DHT22;18207;32.078;34.818;2023-04-05T01:03:59;25.50;36.10
23618;DHT22;18207;32.078;34.818;2023-04-05T01:06:47;25.40;36.10
23618;DHT22;18207;32.078;34.818;2023-04-05T01:09:39;25.40;36.40
23618;DHT22;18207;32.078;34.818;2023-04-05T01:12:17;25.40;36.40
23618;DHT22;18207;32.078;34.818;2023-04-05T01:14:50;25.40;36.20
23618;DHT22;18207;32.078;34.818;2023-04-05T01:17:23;25.30;36.20
23618;DHT22;18207;32.078;34.818;2023-04-05T01:19:56;25.30;36.30
23618;DHT22;18207;32.078;34.818;2023-04-05T01:23:11;25.20;36.30
23618;DHT22;18207;32.078;34.818;2023-04-05T01:29:43;25.10;36.60
23618;DHT22;18207;32.078;34.818;2023-04-05T01:32:27;25.10;36.70
23618;DHT22;18207;32.078;34.818;2023-04-05T01:35:14;25.10;36.60
23618;DHT22;18207;32.078;34.818;2023-04-05T01:37:56;25.10;36.60
23618;DHT22;18207;32.078;34.818;2023-04-05T01:40:31;25.10;36.70
23618;DHT22;18207;32.078;34.818;2023-04-05T01:43:12;25.10;36.70
23618;DHT22;18207;32.078;34.818;2023-04-05T01:45:45;25.00;36.80
23618;DHT22;18207;32.078;34.818;2023-04-05T01:48:15;25.00;36.80
23618;DHT22;18207;32.078;34.818;2023-04-05T01:50:46;25.00;36.80
23618;DHT22;18207;32.078;34.818;2023-04-05T01:53:16;24.90;37.40
23618;DHT22;18207;32.078;34.818;2023-04-05T01:55:47;24.90;36.80
23618;DHT22;18207;32.078;34.818;2023-04-05T01:58:17;24.90;36.80
23618;DHT22;18207;32.078;34.818;2023-04-05T02:00:53;24.90;36.90
23618;DHT22;18207;32.078;34.818;2023-04-05T02:03:24;24.80;36.90
23618;DHT22;18207;32.078;34.818;2023-04-05T02:05:55;24.80;36.90
23618;DHT22;18207;32.078;34.818;2023-04-05T02:08:26;24.80;37.00
23618;DHT22;18207;32.078;34.818;2023-04-05T02:10:57;24.80;37.10
23618;DHT22;18207;32.078;34.818;2023-04-05T02:13:27;24.70;37.00
23618;DHT22;18207;32.078;34.818;2023-04-05T02:15:59;24.70;37.10
23618;DHT22;18207;32.078;34.818;2023-04-05T02:18:30;24.70;37.10
23618;DHT22;18207;32.078;34.818;2023-04-05T02:21:01;24.60;37.10
23618;DHT22;18207;32.078;34.818;2023-04-05T02:23:32;24.60;37.10
23618;DHT22;18207;32.078;34.818;2023-04-05T02:26:03;24.50;37.10
23618;DHT22;18207;32.078;34.818;2023-04-05T02:28:34;24.50;37.20
23618;DHT22;18207;32.078;34.818;2023-04-05T02:31:10;24.50;37.30
23618;DHT22;18207;32.078;34.818;2023-04-05T02:33:40;24.50;37.50
23618;DHT22;18207;32.078;34.818;2023-04-05T02:36:11;24.40;37.30
23618;DHT22;18207;32.078;34.818;2023-04-05T02:38:42;24.40;37.50
23618;DHT22;18207;32.078;34.818;2023-04-05T02:41:12;24.40;37.50
23618;DHT22;18207;32.078;34.818;2023-04-05T02:43:43;24.40;37.60
23618;DHT22;18207;32.078;34.818;2023-04-05T02:46:15;24.30;37.50
23618;DHT22;18207;32.078;34.818;2023-04-05T02:48:56;24.30;37.50
23618;DHT22;18207;32.078;34.818;2023-04-05T02:51:26;24.30;37.60
23618;DHT22;18207;32.078;34.818;2023-04-05T02:53:57;24.20;37.50
23618;DHT22;18207;32.078;34.818;2023-04-05T02:56:27;24.20;37.50
23618;DHT22;18207;32.078;34.818;2023-04-05T02:58:59;24.20;37.50
23618;DHT22;18207;32.078;34.818;2023-04-05T03:01:33;24.20;37.50
23618;DHT22;18207;32.078;34.818;2023-04-05T03:04:05;24.20;37.60
23618;DHT22;18207;32.078;34.818;2023-04-05T03:06:35;24.10;37.60
23618;DHT22;18207;32.078;34.818;2023-04-05T03:09:06;24.10;37.70
23618;DHT22;18207;32.078;34.818;2023-04-05T03:11:37;24.10;37.70
23618;DHT22;18207;32.078;34.818;2023-04-05T03:14:07;24.10;37.70
23618;DHT22;18207;32.078;34.818;2023-04-05T03:16:41;24.10;37.90
23618;DHT22;18207;32.078;34.818;2023-04-05T03:19:19;24.10;37.90
23618;DHT22;18207;32.078;34.818;2023-04-05T03:21:51;24.00;37.90
23618;DHT22;18207;32.078;34.818;2023-04-05T03:24:22;24.00;38.00
23618;DHT22;18207;32.078;34.818;2023-04-05T03:26:53;24.00;38.10
23618;DHT22;18207;32.078;34.818;2023-04-05T03:29:26;24.00;38.10
23618;DHT22;18207;32.078;34.818;2023-04-05T03:31:59;24.00;38.20
23618;DHT22;18207;32.078;34.818;2023-04-05T03:34:29;24.00;38.30
23618;DHT22;18207;32.078;34.818;2023-04-05T03:36:59;23.90;38.20
23618;DHT22;18207;32.078;34.818;2023-04-05T03:39:29;23.90;38.20
23618;DHT22;18207;32.078;34.818;2023-04-05T03:41:59;23.90;38.30
23618;DHT22;18207;32.078;34.818;2023-04-05T03:44:30;23.90;38.40
23618;DHT22;18207;32.078;34.818;2023-04-05T03:47:01;23.90;38.50
23618;DHT22;18207;32.078;34.818;2023-04-05T03:49:32;23.90;38.50
23618;DHT22;18207;32.078;34.818;2023-04-05T03:52:03;23.80;38.50
23618;DHT22;18207;32.078;34.818;2023-04-05T03:54:33;23.80;38.50
23618;DHT22;18207;32.078;34.818;2023-04-05T03:57:04;23.80;38.60
23618;DHT22;18207;32.078;34.818;2023-04-05T03:59:35;23.80;38.70
23618;DHT22;18207;32.078;34.818;2023-04-05T04:02:07;23.80;38.70
23618;DHT22;18207;32.078;34.818;2023-04-05T04:04:38;23.80;38.90
23618;DHT22;18207;32.078;34.818;2023-04-05T04:07:09;23.80;38.90
23618;DHT22;18207;32.078;34.818;2023-04-05T04:09:39;23.80;38.90
23618;DHT22;18207;32.078;34.818;2023-04-05T04:12:09;23.90;39.10
23618;DHT22;18207;32.078;34.818;2023-04-05T04:14:39;23.90;39.10
23618;DHT22;18207;32.078;34.818;2023-04-05T04:17:25;23.90;39.10
23618;DHT22;18207;32.078;34.818;2023-04-05T04:19:57;23.90;39.50
23618;DHT22;18207;32.078;34.818;2023-04-05T04:22:28;23.90;39.30
23618;DHT22;18207;32.078;34.818;2023-04-05T04:24:59;24.00;39.30
23618;DHT22;18207;32.078;34.818;2023-04-05T04:27:31;24.00;39.30
23618;DHT22;18207;32.078;34.818;2023-04-05T04:30:04;24.00;39.30
23618;DHT22;18207;32.078;34.818;2023-04-05T04:32:39;24.10;39.30
23618;DHT22;18207;32.078;34.818;2023-04-05T04:35:21;24.10;39.40
23618;DHT22;18207;32.078;34.818;2023-04-05T04:37:55;24.10;39.30
23618;DHT22;18207;32.078;34.818;2023-04-05T04:40:27;24.10;39.40
23618;DHT22;18207;32.078;34.818;2023-04-05T04:42:59;24.10;39.40
23618;DHT22;18207;32.078;34.818;2023-04-05T04:45:29;24.20;39.50
23618;DHT22;18207;32.078;34.818;2023-04-05T04:48:03;24.20;39.50
23618;DHT22;18207;32.078;34.818;2023-04-05T04:50:34;24.30;39.70
23618;DHT22;18207;32.078;34.818;2023-04-05T04:53:05;24.30;39.60
23618;DHT22;18207;32.078;34.818;2023-04-05T04:55:36;24.30;39.60
23618;DHT22;18207;32.078;34.818;2023-04-05T04:58:09;24.40;39.70
23618;DHT22;18207;32.078;34.818;2023-04-05T05:00:40;24.40;39.70
23618;DHT22;18207;32.078;34.818;2023-04-05T05:03:14;24.50;39.70
23618;DHT22;18207;32.078;34.818;2023-04-05T05:05:44;24.50;39.70
23618;DHT22;18207;32.078;34.818;2023-04-05T05:08:15;24.50;39.70
23618;DHT22;18207;32.078;34.818;2023-04-05T05:10:50;24.60;39.70
23618;DHT22;18207;32.078;34.818;2023-04-05T05:13:21;24.70;39.80
23618;DHT22;18207;32.078;34.818;2023-04-05T05:15:51;24.70;39.70
23618;DHT22;18207;32.078;34.818;2023-04-05T05:18:24;24.80;39.90
23618;DHT22;18207;32.078;34.818;2023-04-05T05:20:55;24.80;39.90
23618;DHT22;18207;32.078;34.818;2023-04-05T05:23:26;24.80;39.80
23618;DHT22;18207;32.078;34.818;2023-04-05T05:25:59;24.90;39.90
23618;DHT22;18207;32.078;34.818;2023-04-05T05:28:29;24.90;39.90
23618;DHT22;18207;32.078;34.818;2023-04-05T05:30:59;25.00;39.90
23618;DHT22;18207;32.078;34.818;2023-04-05T05:33:31;25.10;40.00
23618;DHT22;18207;32.078;34.818;2023-04-05T05:36:01;25.10;40.00
23618;DHT22;18207;32.078;34.818;2023-04-05T05:38:32;25.10;40.00
23618;DHT22;18207;32.078;34.818;2023-04-05T05:41:02;25.20;40.10
23618;DHT22;18207;32.078;34.818;2023-04-05T05:43:33;25.30;40.10
23618;DHT22;18207;32.078;34.818;2023-04-05T05:46:04;25.30;40.10
23618;DHT22;18207;32.078;34.818;2023-04-05T05:48:36;25.40;40.10
23618;DHT22;18207;32.078;34.818;2023-04-05T05:51:08;25.50;40.20
23618;DHT22;18207;32.078;34.818;2023-04-05T05:53:39;25.50;40.10
23618;DHT22;18207;32.078;34.818;2023-04-05T05:56:09;25.50;40.10
23618;DHT22;18207;32.078;34.818;2023-04-05T05:58:40;25.70;40.20
23618;DHT22;18207;32.078;34.818;2023-04-05T06:01:10;25.70;40.10
23618;DHT22;18207;32.078;34.818;2023-04-05T06:03:43;25.70;40.20
23618;DHT22;18207;32.078;34.818;2023-04-05T06:06:14;25.80;40.20
23618;DHT22;18207;32.078;34.818;2023-04-05T06:08:44;25.90;40.30
23618;DHT22;18207;32.078;34.818;2023-04-05T06:11:17;25.90;40.10
23618;DHT22;18207;32.078;34.818;2023-04-05T06:13:48;26.00;40.10
23618;DHT22;18207;32.078;34.818;2023-04-05T06:16:19;26.10;40.00
23618;DHT22;18207;32.078;34.818;2023-04-05T06:18:51;26.10;40.00
23618;DHT22;18207;32.078;34.818;2023-04-05T06:21:22;26.10;39.90
23618;DHT22;18207;32.078;34.818;2023-04-05T06:23:53;26.20;39.90
23618;DHT22;18207;32.078;34.818;2023-04-05T06:26:24;26.20;39.80
23618;DHT22;18207;32.078;34.818;2023-04-05T06:28:56;26.30;39.80
23618;DHT22;18207;32.078;34.818;2023-04-05T06:31:30;26.40;39.80
23618;DHT22;18207;32.078;34.818;2023-04-05T06:34:05;26.40;39.80
23618;DHT22;18207;32.078;34.818;2023-04-05T06:36:35;26.50;39.70
23618;DHT22;18207;32.078;34.818;2023-04-05T06:39:05;26.60;39.60
23618;DHT22;18207;32.078;34.818;2023-04-05T06:41:36;26.60;39.40
23618;DHT22;18207;32.078;34.818;2023-04-05T06:44:07;26.70;39.30
23618;DHT22;18207;32.078;34.818;2023-04-05T06:46:38;26.80;39.30
23618;DHT22;18207;32.078;34.818;2023-04-05T06:49:10;26.80;39.20
23618;DHT22;18207;32.078;34.818;2023-04-05T06:51:40;26.90;39.30
23618;DHT22;18207;32.078;34.818;2023-04-05T06:54:11;27.00;39.40
23618;DHT22;18207;32.078;34.818;2023-04-05T06:56:43;27.00;39.30
23618;DHT22;18207;32.078;34.818;2023-04-05T06:59:14;27.10;39.40
23618;DHT22;18207;32.078;34.818;2023-04-05T07:01:44;27.10;39.40
23618;DHT22;18207;32.078;34.818;2023-04-05T07:04:16;27.30;39.40
23618;DHT22;18207;32.078;34.818;2023-04-05T07:06:47;27.30;39.20
23618;DHT22;18207;32.078;34.818;2023-04-05T07:09:17;27.40;39.00
23618;DHT22;18207;32.078;34.818;2023-04-05T07:11:48;27.40;39.00
23618;DHT22;18207;32.078;34.818;2023-04-05T07:14:19;27.50;38.90
23618;DHT22;18207;32.078;34.818;2023-04-05T07:16:50;27.60;39.00
23618;DHT22;18207;32.078;34.818;2023-04-05T07:19:22;27.70;38.90
23618;DHT22;18207;32.078;34.818;2023-04-05T07:21:54;27.80;38.90
23618;DHT22;18207;32.078;34.818;2023-04-05T07:24:24;27.80;38.70
23618;DHT22;18207;32.078;34.818;2023-04-05T07:26:55;28.00;38.60
23618;DHT22;18207;32.078;34.818;2023-04-05T07:29:28;28.00;38.50
23618;DHT22;18207;32.078;34.818;2023-04-05T07:31:59;28.00;38.40
23618;DHT22;18207;32.078;34.818;2023-04-05T07:34:31;28.10;38.40
23618;DHT22;18207;32.078;34.818;2023-04-05T07:37:03;28.20;38.30
23618;DHT22;18207;32.078;34.818;2023-04-05T07:39:35;28.30;38.30
23618;DHT22;18207;32.078;34.818;2023-04-05T07:42:05;28.30;38.10
23618;DHT22;18207;32.078;34.818;2023-04-05T07:44:35;28.40;38.10
23618;DHT22;18207;32.078;34.818;2023-04-05T07:47:06;28.50;38.10
23618;DHT22;18207;32.078;34.818;2023-04-05T07:49:37;28.50;38.10
23618;DHT22;18207;32.078;34.818;2023-04-05T07:52:08;28.60;38.10
23618;DHT22;18207;32.078;34.818;2023-04-05T07:54:39;28.60;38.10
23618;DHT22;18207;32.078;34.818;2023-04-05T07:57:15;28.70;38.00
23618;DHT22;18207;32.078;34.818;2023-04-05T07:59:47;28.70;37.70
23618;DHT22;18207;32.078;34.818;2023-04-05T08:02:19;28.70;37.60
23618;DHT22;18207;32.078;34.818;2023-04-05T08:04:52;28.80;37.50
23618;DHT22;18207;32.078;34.818;2023-04-05T08:07:23;28.80;37.50
23618;DHT22;18207;32.078;34.818;2023-04-05T08:09:53;28.90;37.60
23618;DHT22;18207;32.078;34.818;2023-04-05T08:12:26;28.90;37.60
23618;DHT22;18207;32.078;34.818;2023-04-05T08:14:56;28.90;37.60
23618;DHT22;18207;32.078;34.818;2023-04-05T08:17:27;29.00;37.60
23618;DHT22;18207;32.078;34.818;2023-04-05T08:20:00;29.00;37.50
23618;DHT22;18207;32.078;34.818;2023-04-05T08:22:30;29.10;37.50
23618;DHT22;18207;32.078;34.818;2023-04-05T08:25:01;29.10;37.50
23618;DHT22;18207;32.078;34.818;2023-04-05T08:27:32;29.20;37.40
23618;DHT22;18207;32.078;34.818;2023-04-05T08:30:04;29.20;37.30
23618;DHT22;18207;32.078;34.818;2023-04-05T08:32:36;29.20;37.20
23618;DHT22;18207;32.078;34.818;2023-04-05T08:35:10;29.30;37.10
23618;DHT22;18207;32.078;34.818;2023-04-05T08:37:41;29.30;37.00
23618;DHT22;18207;32.078;34.818;2023-04-05T08:40:11;29.30;37.00
23618;DHT22;18207;32.078;34.818;2023-04-05T08:42:48;29.30;36.90
23618;DHT22;18207;32.078;34.818;2023-04-05T08:45:26;29.30;36.90
23618;DHT22;18207;32.078;34.818;2023-04-05T08:47:56;29.30;36.80
23618;DHT22;18207;32.078;34.818;2023-04-05T08:50:28;29.40;36.80
23618;DHT22;18207;32.078;34.818;2023-04-05T08:53:00;29.40;36.60
23618;DHT22;18207;32.078;34.818;2023-04-05T08:55:30;29.50;36.60
23618;DHT22;18207;32.078;34.818;2023-04-05T08:58:02;29.40;36.60
23618;DHT22;18207;32.078;34.818;2023-04-05T09:00:42;29.50;36.50
23618;DHT22;18207;32.078;34.818;2023-04-05T09:03:16;29.50;36.50
23618;DHT22;18207;32.078;34.818;2023-04-05T09:05:52;29.50;36.40
23618;DHT22;18207;32.078;34.818;2023-04-05T09:08:26;29.60;36.30
23618;DHT22;18207;32.078;34.818;2023-04-05T09:10:56;29.60;36.30
23618;DHT22;18207;32.078;34.818;2023-04-05T09:13:26;29.60;36.30
23618;DHT22;18207;32.078;34.818;2023-04-05T09:16:00;29.60;36.40
23618;DHT22;18207;32.078;34.818;2023-04-05T09:18:31;29.60;36.20
23618;DHT22;18207;32.078;34.818;2023-04-05T09:21:04;29.60;36.10
23618;DHT22;18207;32.078;34.818;2023-04-05T09:23:36;29.60;35.90
23618;DHT22;18207;32.078;34.818;2023-04-05T09:26:20;29.70;35.90
23618;DHT22;18207;32.078;34.818;2023-04-05T09:28:51;29.70;35.90
23618;DHT22;18207;32.078;34.818;2023-04-05T09:31:40;29.70;35.80
23618;DHT22;18207;32.078;34.818;2023-04-05T09:34:19;29.70;35.70
23618;DHT22;18207;32.078;34.818;2023-04-05T09:36:52;29.70;35.80
23618;DHT22;18207;32.078;34.818;2023-04-05T09:39:27;29.70;35.90
23618;DHT22;18207;32.078;34.818;2023-04-05T09:42:07;29.70;35.80
23618;DHT22;18207;32.078;34.818;2023-04-05T09:44:51;29.70;35.70
23618;DHT22;18207;32.078;34.818;2023-04-05T09:47:24;29.70;35.60
23618;DHT22;18207;32.078;34.818;2023-04-05T09:49:58;29.80;35.70
23618;DHT22;18207;32.078;34.818;2023-04-05T09:52:31;29.70;35.60
23618;DHT22;18207;32.078;34.818;2023-04-05T09:55:04;29.70;35.60
23618;DHT22;18207;32.078;34.818;2023-04-05T09:57:36;29.70;35.50
23618;DHT22;18207;32.078;34.818;2023-04-05T10:00:17;29.70;35.40
23618;DHT22;18207;32.078;34.818;2023-04-05T10:02:52;29.70;35.20
23618;DHT22;18207;32.078;34.818;2023-04-05T10:05:26;29.70;35.00
23618;DHT22;18207;32.078;34.818;2023-04-05T10:08:00;29.70;34.90
23618;DHT22;18207;32.078;34.818;2023-04-05T10:10:37;29.60;34.80
23618;DHT22;18207;32.078;34.818;2023-04-05T10:13:16;29.60;34.80
23618;DHT22;18207;32.078;34.818;2023-04-05T10:15:49;29.60;35.00
23618;DHT22;18207;32.078;34.818;2023-04-05T10:18:28;29.60;34.80
23618;DHT22;18207;32.078;34.818;2023-04-05T10:21:09;29.60;34.80
23618;DHT22;18207;32.078;34.818;2023-04-05T10:23:47;29.60;34.80
23618;DHT22;18207;32.078;34.818;2023-04-05T10:26:36;29.60;34.70
23618;DHT22;18207;32.078;34.818;2023-04-05T10:29:19;29.60;34.60
23618;DHT22;18207;32.078;34.818;2023-04-05T10:32:03;29.60;34.60
23618;DHT22;18207;32.078;34.818;2023-04-05T10:34:47;29.60;34.60
23618;DHT22;18207;32.078;34.818;2023-04-05T10:37:40;29.60;34.60
23618;DHT22;18207;32.078;34.818;2023-04-05T10:40:26;29.60;34.40
23618;DHT22;18207;32.078;34.818;2023-04-05T10:43:03;29.60;34.40
23618;DHT22;18207;32.078;34.818;2023-04-05T10:45:43;29.50;34.30
23618;DHT22;18207;32.078;34.818;2023-04-05T10:48:24;29.50;34.30
23618;DHT22;18207;32.078;34.818;2023-04-05T10:51:04;29.50;34.30
23618;DHT22;18207;32.078;34.818;2023-04-05T10:53:36;29.50;34.30
23618;DHT22;18207;32.078;34.818;2023-04-05T10:56:11;29.60;34.30
23618;DHT22;18207;32.078;34.818;2023-04-05T10:58:42;29.50;34.30
23618;DHT22;18207;32.078;34.818;2023-04-05T11:01:16;29.60;34.30
23618;DHT22;18207;32.078;34.818;2023-04-05T11:03:49;29.50;34.20
23618;DHT22;18207;32.078;34.818;2023-04-05T11:06:23;29.50;34.10
23618;DHT22;18207;32.078;34.818;2023-04-05T11:09:00;29.50;34.20
23618;DHT22;18207;32.078;34.818;2023-04-05T11:11:42;29.50;34.20
23618;DHT22;18207;32.078;34.818;2023-04-05T11:14:20;29.50;34.10
23618;DHT22;18207;32.078;34.818;2023-04-05T11:16:53;29.40;34.10
23618;DHT22;18207;32.078;34.818;2023-04-05T11:19:47;29.40;34.20
23618;DHT22;18207;32.078;34.818;2023-04-05T11:22:26;29.40;34.20
23618;DHT22;18207;32.078;34.818;2023-04-05T11:25:00;29.40;34.30
23618;DHT22;18207;32.078;34.818;2023-04-05T11:27:34;29.40;34.30
23618;DHT22;18207;32.078;34.818;2023-04-05T11:30:08;29.40;34.40
23618;DHT22;18207;32.078;34.818;2023-04-05T11:32:40;29.40;34.50
23618;DHT22;18207;32.078;34.818;2023-04-05T11:35:15;29.40;34.60
23618;DHT22;18207;32.078;34.818;2023-04-05T11:37:53;29.40;34.60
23618;DHT22;18207;32.078;34.818;2023-04-05T11:40:50;29.40;34.60
23618;DHT22;18207;32.078;34.818;2023-04-05T11:43:37;29.40;34.50
23618;DHT22;18207;32.078;34.818;2023-04-05T11:46:09;29.40;34.50
23618;DHT22;18207;32.078;34.818;2023-04-05T11:48:42;29.30;34.50
23618;DHT22;18207;32.078;34.818;2023-04-05T11:51:13;29.30;34.50
23618;DHT22;18207;32.078;34.818;2023-04-05T11:53:46;29.30;34.40
23618;DHT22;18207;32.078;34.818;2023-04-05T11:56:17;29.30;34.30
23618;DHT22;18207;32.078;34.818;2023-04-05T11:58:50;29.30;34.30
23618;DHT22;18207;32.078;34.818;2023-04-05T12:01:21;29.30;34.30
23618;DHT22;18207;32.078;34.818;2023-04-05T12:03:52;29.30;34.20
23618;DHT22;18207;32.078;34.818;2023-04-05T12:06:25;29.20;34.20
23618;DHT22;18207;32.078;34.818;2023-04-05T12:08:55;29.20;34.30
23618;DHT22;18207;32.078;34.818;2023-04-05T12:11:27;29.20;34.40
23618;DHT22;18207;32.078;34.818;2023-04-05T12:14:00;29.20;34.50
23618;DHT22;18207;32.078;34.818;2023-04-05T12:16:31;29.10;34.40
23618;DHT22;18207;32.078;34.818;2023-04-05T12:19:02;29.20;34.50
23618;DHT22;18207;32.078;34.818;2023-04-05T12:21:32;29.10;34.30
23618;DHT22;18207;32.078;34.818;2023-04-05T12:24:04;29.10;34.40
23618;DHT22;18207;32.078;34.818;2023-04-05T12:26:34;29.10;34.40
23618;DHT22;18207;32.078;34.818;2023-04-05T12:29:06;29.00;34.40
23618;DHT22;18207;32.078;34.818;2023-04-05T12:31:40;29.00;34.40
23618;DHT22;18207;32.078;34.818;2023-04-05T12:34:13;29.00;34.50
23618;DHT22;18207;32.078;34.818;2023-04-05T12:36:44;28.90;34.50
23618;DHT22;18207;32.078;34.818;2023-04-05T12:39:15;28.90;34.50
23618;DHT22;18207;32.078;34.818;2023-04-05T12:41:55;28.90;34.40
23618;DHT22;18207;32.078;34.818;2023-04-05T12:44:30;28.90;34.30
23618;DHT22;18207;32.078;34.818;2023-04-05T12:47:02;28.80;34.20
23618;DHT22;18207;32.078;34.818;2023-04-05T12:49:37;28.80;34.30
23618;DHT22;18207;32.078;34.818;2023-04-05T12:52:08;28.80;34.30
23618;DHT22;18207;32.078;34.818;2023-04-05T12:54:38;28.80;34.30
23618;DHT22;18207;32.078;34.818;2023-04-05T12:57:09;28.80;34.30
23618;DHT22;18207;32.078;34.818;2023-04-05T12:59:42;28.70;34.40
23618;DHT22;18207;32.078;34.818;2023-04-05T13:02:12;28.70;34.40
23618;DHT22;18207;32.078;34.818;2023-04-05T13:04:43;28.70;34.40
23618;DHT22;18207;32.078;34.818;2023-04-05T13:07:13;28.70;34.40
23618;DHT22;18207;32.078;34.818;2023-04-05T13:09:43;28.60;34.30
23618;DHT22;18207;32.078;34.818;2023-04-05T13:12:13;28.60;34.30
23618;DHT22;18207;32.078;34.818;2023-04-05T13:14:46;28.60;34.30
23618;DHT22;18207;32.078;34.818;2023-04-05T13:17:16;28.50;34.30
23618;DHT22;18207;32.078;34.818;2023-04-05T13:19:47;28.50;34.30
23618;DHT22;18207;32.078;34.818;2023-04-05T13:22:18;28.40;34.30
23618;DHT22;18207;32.078;34.818;2023-04-05T13:24:48;28.40;34.40
23618;DHT22;18207;32.078;34.818;2023-04-05T13:27:20;28.30;34.40
23618;DHT22;18207;32.078;34.818;2023-04-05T13:29:52;28.30;34.40
23618;DHT22;18207;32.078;34.818;2023-04-05T13:32:22;28.30;34.50
23618;DHT22;18207;32.078;34.818;2023-04-05T13:34:53;28.20;34.50
23618;DHT22;18207;32.078;34.818;2023-04-05T13:37:23;28.10;34.40
23618;DHT22;18207;32.078;34.818;2023-04-05T13:39:53;28.20;34.60
23618;DHT22;18207;32.078;34.818;2023-04-05T13:42:23;28.10;34.60
23618;DHT22;18207;32.078;34.818;2023-04-05T13:44:56;28.10;34.70
23618;DHT22;18207;32.078;34.818;2023-04-05T13:47:26;28.10;34.80
23618;DHT22;18207;32.078;34.818;2023-04-05T13:49:57;28.00;34.80
23618;DHT22;18207;32.078;34.818;2023-04-05T13:52:29;28.00;34.90
23618;DHT22;18207;32.078;34.818;2023-04-05T13:54:59;28.00;35.00
23618;DHT22;18207;32.078;34.818;2023-04-05T13:57:31;28.00;35.10
23618;DHT22;18207;32.078;34.818;2023-04-05T14:00:04;28.00;35.10
23618;DHT22;18207;32.078;34.818;2023-04-05T14:02:35;27.90;35.20
23618;DHT22;18207;32.078;34.818;2023-04-05T14:05:07;27.90;35.30
23618;DHT22;18207;32.078;34.818;2023-04-05T14:07:38;27.90;35.30
23618;DHT22;18207;32.078;34.818;2023-04-05T14:10:09;27.90;35.30
23618;DHT22;18207;32.078;34.818;2023-04-05T14:12:40;27.90;35.30
23618;DHT22;18207;32.078;34.818;2023-04-05T14:15:13;27.80;35.30
23618;DHT22;18207;32.078;34.818;2023-04-05T14:17:43;27.80;35.30
23618;DHT22;18207;32.078;34.818;2023-04-05T14:20:13;27.80;35.30
23618;DHT22;18207;32.078;34.818;2023-04-05T14:22:44;27.80;35.30
23618;DHT22;18207;32.078;34.818;2023-04-05T14:25:15;27.80;35.30
23618;DHT22;18207;32.078;34.818;2023-04-05T14:27:45;27.80;36.00
23618;DHT22;18207;32.078;34.818;2023-04-05T14:30:18;27.70;35.30
23618;DHT22;18207;32.078;34.818;2023-04-05T14:32:48;27.70;35.40
23618;DHT22;18207;32.078;34.818;2023-04-05T14:35:19;27.70;35.40
23618;DHT22;18207;32.078;34.818;2023-04-05T14:37:49;27.70;35.50
23618;DHT22;18207;32.078;34.818;2023-04-05T14:40:19;27.60;35.50
23618;DHT22;18207;32.078;34.818;2023-04-05T14:42:50;27.60;35.60
23618;DHT22;18207;32.078;34.818;2023-04-05T14:45:22;27.60;35.60
23618;DHT22;18207;32.078;34.818;2023-04-05T14:47:55;27.60;35.60
23618;DHT22;18207;32.078;34.818;2023-04-05T14:50:26;27.60;35.60
23618;DHT22;18207;32.078;34.818;2023-04-05T14:52:59;27.50;35.60
23618;DHT22;18207;32.078;34.818;2023-04-05T14:55:30;27.50;35.70
23618;DHT22;18207;32.078;34.818;2023-04-05T14:58:00;27.50;35.70
23618;DHT22;18207;32.078;34.818;2023-04-05T15:00:32;27.40;35.80
23618;DHT22;18207;32.078;34.818;2023-04-05T15:03:03;27.40;35.90
23618;DHT22;18207;32.078;34.818;2023-04-05T15:05:34;27.40;35.80
23618;DHT22;18207;32.078;34.818;2023-04-05T15:08:05;27.40;35.80
23618;DHT22;18207;32.078;34.818;2023-04-05T15:10:36;27.40;35.80
23618;DHT22;18207;32.078;34.818;2023-04-05T15:13:09;27.30;35.80
23618;DHT22;18207;32.078;34.818;2023-04-05T15:15:42;27.30;35.90
23618;DHT22;18207;32.078;34.818;2023-04-05T15:18:13;27.30;35.90
23618;DHT22;18207;32.078;34.818;2023-04-05T15:20:43;27.30;36.00
23618;DHT22;18207;32.078;34.818;2023-04-05T15:23:14;27.20;36.00
23618;DHT22;18207;32.078;34.818;2023-04-05T15:25:45;27.20;36.10
23618;DHT22;18207;32.078;34.818;2023-04-05T15:28:15;27.20;36.10
23618;DHT22;18207;32.078;34.818;2023-04-05T15:30:47;27.10;36.10
23618;DHT22;18207;32.078;34.818;2023-04-05T15:33:18;27.10;36.20
23618;DHT22;18207;32.078;34.818;2023-04-05T15:35:49;27.10;36.90
23618;DHT22;18207;32.078;34.818;2023-04-05T15:38:20;27.00;36.30
23618;DHT22;18207;32.078;34.818;2023-04-05T15:40:50;27.00;36.40
23618;DHT22;18207;32.078;34.818;2023-04-05T15:43:23;27.00;36.50
23618;DHT22;18207;32.078;34.818;2023-04-05T15:45:55;27.00;36.60
23618;DHT22;18207;32.078;34.818;2023-04-05T15:48:26;26.90;36.50
23618;DHT22;18207;32.078;34.818;2023-04-05T15:50:56;26.90;36.70
23618;DHT22;18207;32.078;34.818;2023-04-05T15:53:27;26.90;36.70